sensor_id;sensor_type;location;lat;lon;timestamp;temperature;humidity
1468;DHT22;727;48.892;9.544;2022-12-13T00:01:37;-5.70;99.90
1468;DHT22;727;48.892;9.544;2022-12-13T00:04:06;-5.60;99.90
1468;DHT22;727;48.892;9.544;2022-12-13T00:06:33;-5.60;99.90
1468;DHT22;727;48.892;9.544;2022-12-13T00:09:02;-5.50;99.90
1468;DHT22;727;48.892;9.544;2022-12-13T00:11:31;-5.60;99.90
1468;DHT22;727;48.892;9.544;2022-12-13T00:13:58;-5.50;99.90
1468;DHT22;727;48.892;9.544;2022-12-13T00:16:26;-5.50;99.90
1468;DHT22;727;48.892;9.544;2022-12-13T00:18:55;-5.50;99.90
1468;DHT22;727;48.892;9.544;2022-12-13T00:21:24;-5.50;99.90
1468;DHT22;727;48.892;9.544;2022-12-13T00:23:51;-5.50;99.90
1468;DHT22;727;48.892;9.544;2022-12-13T00:26:19;-5.50;99.90
1468;DHT22;727;48.892;9.544;2022-12-13T00:28:51;-5.60;99.90
1468;DHT22;727;48.892;9.544;2022-12-13T00:31:22;-5.60;99.90
1468;DHT22;727;48.892;9.544;2022-12-13T00:33:49;-5.60;99.90
1468;DHT22;727;48.892;9.544;2022-12-13T00:36:15;-5.60;99.90
1468;DHT22;727;48.892;9.544;2022-12-13T00:38:43;-5.50;99.90
1468;DHT22;727;48.892;9.544;2022-12-13T00:41:11;-5.50;99.90
1468;DHT22;727;48.892;9.544;2022-12-13T00:43:38;-5.50;99.90
1468;DHT22;727;48.892;9.544;2022-12-13T00:46:11;-5.50;99.90
1468;DHT22;727;48.892;9.544;2022-12-13T00:48:38;-5.60;99.90
1468;DHT22;727;48.892;9.544;2022-12-13T00:51:06;-5.60;99.90
1468;DHT22;727;48.892;9.544;2022-12-13T00:53:33;-5.60;99.90
1468;DHT22;727;48.892;9.544;2022-12-13T00:56:00;-5.70;99.90
1468;DHT22;727;48.892;9.544;2022-12-13T00:58:27;-5.70;99.90
1468;DHT22;727;48.892;9.544;2022-12-13T01:01:02;-5.70;99.90
1468;DHT22;727;48.892;9.544;2022-12-13T01:03:31;-5.70;99.90
1468;DHT22;727;48.892;9.544;2022-12-13T01:05:59;-5.70;99.90
1468;DHT22;727;48.892;9.544;2022-12-13T01:08:27;-5.70;99.90
1468;DHT22;727;48.892;9.544;2022-12-13T01:10:54;-5.80;99.90
1468;DHT22;727;48.892;9.544;2022-12-13T01:13:21;-5.80;99.90
1468;DHT22;727;48.892;9.544;2022-12-13T01:15:47;-5.80;99.90
1468;DHT22;727;48.892;9.544;2022-12-13T01:18:14;-5.80;99.90
1468;DHT22;727;48.892;9.544;2022-12-13T01:20:56;-5.90;99.90
1468;DHT22;727;48.892;9.544;2022-12-13T01:23:23;-5.90;99.90
1468;DHT22;727;48.892;9.544;2022-12-13T01:25:50;-5.90;99.90
1468;DHT22;727;48.892;9.544;2022-12-13T01:28:17;-5.90;99.90
1468;DHT22;727;48.892;9.544;2022-12-13T01:30:44;-6.00;99.90
1468;DHT22;727;48.892;9.544;2022-12-13T01:33:10;-6.00;99.90
1468;DHT22;727;48.892;9.544;2022-12-13T01:35:37;-6.00;99.90
1468;DHT22;727;48.892;9.544;2022-12-13T01:38:05;-6.00;99.90
1468;DHT22;727;48.892;9.544;2022-12-13T01:40:32;-6.00;99.90
1468;DHT22;727;48.892;9.544;2022-12-13T01:42:58;-6.00;99.90
1468;DHT22;727;48.892;9.544;2022-12-13T01:45:26;-6.10;99.90
1468;DHT22;727;48.892;9.544;2022-12-13T01:47:55;-6.00;99.90
1468;DHT22;727;48.892;9.544;2022-12-13T01:50:26;-6.10;99.90
1468;DHT22;727;48.892;9.544;2022-12-13T01:52:54;-6.20;99.90
1468;DHT22;727;48.892;9.544;2022-12-13T01:55:24;-6.30;99.90
1468;DHT22;727;48.892;9.544;2022-12-13T01:57:53;-6.30;99.90
1468;DHT22;727;48.892;9.544;2022-12-13T02:00:21;-6.40;99.90
1468;DHT22;727;48.892;9.544;2022-12-13T02:02:50;-6.30;99.90
1468;DHT22;727;48.892;9.544;2022-12-13T02:05:22;-6.40;99.90
1468;DHT22;727;48.892;9.544;2022-12-13T02:07:50;-6.40;99.90
1468;DHT22;727;48.892;9.544;2022-12-13T02:10:17;-6.40;99.90
1468;DHT22;727;48.892;9.544;2022-12-13T02:12:46;-6.40;99.90
1468;DHT22;727;48.892;9.544;2022-12-13T02:15:16;-6.40;99.90
1468;DHT22;727;48.892;9.544;2022-12-13T02:17:55;-6.40;99.90
1468;DHT22;727;48.892;9.544;2022-12-13T02:20:51;-6.40;99.90
1468;DHT22;727;48.892;9.544;2022-12-13T02:27:08;-6.50;99.90
1468;DHT22;727;48.892;9.544;2022-12-13T02:32:56;-6.50;99.90
1468;DHT22;727;48.892;9.544;2022-12-13T02:35:32;-6.50;99.90
1468;DHT22;727;48.892;9.544;2022-12-13T02:38:07;-6.50;99.90
1468;DHT22;727;48.892;9.544;2022-12-13T02:40:38;-6.60;99.90
1468;DHT22;727;48.892;9.544;2022-12-13T02:43:10;-6.60;99.90
1468;DHT22;727;48.892;9.544;2022-12-13T02:45:43;-6.60;99.90
1468;DHT22;727;48.892;9.544;2022-12-13T02:48:13;-6.70;99.90
1468;DHT22;727;48.892;9.544;2022-12-13T02:50:42;-6.70;99.90
1468;DHT22;727;48.892;9.544;2022-12-13T02:53:10;-6.60;99.90
1468;DHT22;727;48.892;9.544;2022-12-13T02:55:39;-6.70;99.90
1468;DHT22;727;48.892;9.544;2022-12-13T02:58:11;-6.70;99.90
1468;DHT22;727;48.892;9.544;2022-12-13T03:00:50;-6.70;99.90
1468;DHT22;727;48.892;9.544;2022-12-13T03:03:29;-6.70;99.90
1468;DHT22;727;48.892;9.544;2022-12-13T03:06:07;-6.70;99.90
1468;DHT22;727;48.892;9.544;2022-12-13T03:09:11;-6.70;99.90
1468;DHT22;727;48.892;9.544;2022-12-13T03:11:52;-6.70;99.90
1468;DHT22;727;48.892;9.544;2022-12-13T03:14:45;-6.60;99.90
1468;DHT22;727;48.892;9.544;2022-12-13T03:17:15;-6.60;99.90
1468;DHT22;727;48.892;9.544;2022-12-13T03:19:46;-6.60;99.90
1468;DHT22;727;48.892;9.544;2022-12-13T03:22:14;-6.60;99.90
1468;DHT22;727;48.892;9.544;2022-12-13T03:24:41;-6.60;99.90
1468;DHT22;727;48.892;9.544;2022-12-13T03:27:08;-6.60;99.90
1468;DHT22;727;48.892;9.544;2022-12-13T03:29:35;-6.70;99.90
1468;DHT22;727;48.892;9.544;2022-12-13T03:32:01;-6.70;99.90
1468;DHT22;727;48.892;9.544;2022-12-13T03:34:28;-6.70;99.90
1468;DHT22;727;48.892;9.544;2022-12-13T03:36:56;-6.70;99.90
1468;DHT22;727;48.892;9.544;2022-12-13T03:39:23;-6.50;99.90
1468;DHT22;727;48.892;9.544;2022-12-13T03:41:50;-6.40;99.90
1468;DHT22;727;48.892;9.544;2022-12-13T03:44:17;-6.30;99.90
1468;DHT22;727;48.892;9.544;2022-12-13T03:46:44;-6.20;99.90
1468;DHT22;727;48.892;9.544;2022-12-13T03:49:10;-6.30;99.90
1468;DHT22;727;48.892;9.544;2022-12-13T03:51:37;-6.30;99.90
1468;DHT22;727;48.892;9.544;2022-12-13T03:54:05;-6.40;99.90
1468;DHT22;727;48.892;9.544;2022-12-13T03:56:32;-6.40;99.90
1468;DHT22;727;48.892;9.544;2022-12-13T03:58:58;-6.40;99.90
1468;DHT22;727;48.892;9.544;2022-12-13T04:01:26;-6.40;99.90
1468;DHT22;727;48.892;9.544;2022-12-13T04:03:53;-6.30;99.90
1468;DHT22;727;48.892;9.544;2022-12-13T04:06:20;-6.20;99.90
1468;DHT22;727;48.892;9.544;2022-12-13T04:08:47;-6.30;99.90
1468;DHT22;727;48.892;9.544;2022-12-13T04:11:15;-6.30;99.90
1468;DHT22;727;48.892;9.544;2022-12-13T04:13:59;-6.30;99.90
1468;DHT22;727;48.892;9.544;2022-12-13T04:16:26;-6.20;99.90
1468;DHT22;727;48.892;9.544;2022-12-13T04:18:52;-6.20;99.90
1468;DHT22;727;48.892;9.544;2022-12-13T04:21:19;-6.20;99.90
1468;DHT22;727;48.892;9.544;2022-12-13T04:23:46;-6.20;99.90
1468;DHT22;727;48.892;9.544;2022-12-13T04:26:12;-6.20;99.90
1468;DHT22;727;48.892;9.544;2022-12-13T04:28:40;-6.20;99.90
1468;DHT22;727;48.892;9.544;2022-12-13T04:31:07;-6.20;99.90
1468;DHT22;727;48.892;9.544;2022-12-13T04:33:34;-6.20;99.90
1468;DHT22;727;48.892;9.544;2022-12-13T04:36:00;-6.10;99.90
1468;DHT22;727;48.892;9.544;2022-12-13T04:38:27;-6.10;99.90
1468;DHT22;727;48.892;9.544;2022-12-13T04:41:03;-6.10;99.90
1468;DHT22;727;48.892;9.544;2022-12-13T04:43:30;-6.20;99.90
1468;DHT22;727;48.892;9.544;2022-12-13T04:45:58;-6.20;99.90
1468;DHT22;727;48.892;9.544;2022-12-13T04:48:25;-6.10;99.90
1468;DHT22;727;48.892;9.544;2022-12-13T04:50:51;-6.10;99.90
1468;DHT22;727;48.892;9.544;2022-12-13T04:53:18;-5.80;99.90
1468;DHT22;727;48.892;9.544;2022-12-13T04:55:45;-5.90;99.90
1468;DHT22;727;48.892;9.544;2022-12-13T04:58:11;-5.90;99.90
1468;DHT22;727;48.892;9.544;2022-12-13T05:00:39;-6.00;99.90
1468;DHT22;727;48.892;9.544;2022-12-13T05:03:07;-6.00;99.90
1468;DHT22;727;48.892;9.544;2022-12-13T05:05:33;-6.00;99.90
1468;DHT22;727;48.892;9.544;2022-12-13T05:08:03;-6.00;99.90
1468;DHT22;727;48.892;9.544;2022-12-13T05:10:30;-6.00;99.90
1468;DHT22;727;48.892;9.544;2022-12-13T05:12:58;-6.00;99.90
1468;DHT22;727;48.892;9.544;2022-12-13T05:15:24;-5.90;99.90
1468;DHT22;727;48.892;9.544;2022-12-13T05:17:51;-5.90;99.90
1468;DHT22;727;48.892;9.544;2022-12-13T05:20:19;-5.90;99.90
1468;DHT22;727;48.892;9.544;2022-12-13T05:22:47;-5.80;99.90
1468;DHT22;727;48.892;9.544;2022-12-13T05:25:14;-5.90;99.90
1468;DHT22;727;48.892;9.544;2022-12-13T05:27:41;-5.90;99.90
1468;DHT22;727;48.892;9.544;2022-12-13T05:30:08;-6.00;99.90
1468;DHT22;727;48.892;9.544;2022-12-13T05:32:35;-6.00;99.90
1468;DHT22;727;48.892;9.544;2022-12-13T05:35:03;-6.00;99.90
1468;DHT22;727;48.892;9.544;2022-12-13T05:37:31;-5.90;99.90
1468;DHT22;727;48.892;9.544;2022-12-13T05:39:58;-5.90;99.90
1468;DHT22;727;48.892;9.544;2022-12-13T05:42:25;-5.90;99.90
1468;DHT22;727;48.892;9.544;2022-12-13T05:44:52;-5.90;99.90
1468;DHT22;727;48.892;9.544;2022-12-13T05:47:18;-5.80;99.90
1468;DHT22;727;48.892;9.544;2022-12-13T05:49:45;-5.80;99.90
1468;DHT22;727;48.892;9.544;2022-12-13T05:52:15;-5.80;99.90
1468;DHT22;727;48.892;9.544;2022-12-13T05:54:44;-5.90;99.90
1468;DHT22;727;48.892;9.544;2022-12-13T05:57:11;-6.00;99.90
1468;DHT22;727;48.892;9.544;2022-12-13T05:59:37;-5.90;99.90
1468;DHT22;727;48.892;9.544;2022-12-13T06:02:04;-6.00;99.90
1468;DHT22;727;48.892;9.544;2022-12-13T06:04:31;-6.00;99.90
1468;DHT22;727;48.892;9.544;2022-12-13T06:06:58;-6.10;99.90
1468;DHT22;727;48.892;9.544;2022-12-13T06:09:24;-6.10;99.90
1468;DHT22;727;48.892;9.544;2022-12-13T06:11:53;-6.10;99.90
1468;DHT22;727;48.892;9.544;2022-12-13T06:14:20;-6.10;99.90
1468;DHT22;727;48.892;9.544;2022-12-13T06:16:47;-6.10;99.90
1468;DHT22;727;48.892;9.544;2022-12-13T06:19:14;-6.20;99.90
1468;DHT22;727;48.892;9.544;2022-12-13T06:21:40;-6.20;99.90
1468;DHT22;727;48.892;9.544;2022-12-13T06:24:07;-6.20;99.90
1468;DHT22;727;48.892;9.544;2022-12-13T06:26:34;-6.20;99.90
1468;DHT22;727;48.892;9.544;2022-12-13T06:29:02;-6.20;99.90
1468;DHT22;727;48.892;9.544;2022-12-13T06:31:28;-6.20;99.90
1468;DHT22;727;48.892;9.544;2022-12-13T06:33:55;-6.30;99.90
1468;DHT22;727;48.892;9.544;2022-12-13T06:36:22;-6.40;99.90
1468;DHT22;727;48.892;9.544;2022-12-13T06:38:49;-6.40;99.90
1468;DHT22;727;48.892;9.544;2022-12-13T06:41:16;-6.40;99.90
1468;DHT22;727;48.892;9.544;2022-12-13T06:43:43;-6.50;99.90
1468;DHT22;727;48.892;9.544;2022-12-13T06:46:12;-6.50;99.90
1468;DHT22;727;48.892;9.544;2022-12-13T06:48:39;-6.50;99.90
1468;DHT22;727;48.892;9.544;2022-12-13T06:51:08;-6.50;99.90
1468;DHT22;727;48.892;9.544;2022-12-13T06:53:36;-6.50;99.90
1468;DHT22;727;48.892;9.544;2022-12-13T06:56:03;-6.40;99.90
1468;DHT22;727;48.892;9.544;2022-12-13T06:58:31;-6.40;99.90
1468;DHT22;727;48.892;9.544;2022-12-13T07:01:02;-6.30;99.90
1468;DHT22;727;48.892;9.544;2022-12-13T07:03:31;-6.20;99.90
1468;DHT22;727;48.892;9.544;2022-12-13T07:05:58;-6.20;99.90
1468;DHT22;727;48.892;9.544;2022-12-13T07:08:25;-6.30;99.90
1468;DHT22;727;48.892;9.544;2022-12-13T07:10:52;-6.30;99.90
1468;DHT22;727;48.892;9.544;2022-12-13T07:13:20;-6.40;99.90
1468;DHT22;727;48.892;9.544;2022-12-13T07:15:47;-6.40;99.90
1468;DHT22;727;48.892;9.544;2022-12-13T07:18:14;-6.40;99.90
1468;DHT22;727;48.892;9.544;2022-12-13T07:20:42;-6.20;99.90
1468;DHT22;727;48.892;9.544;2022-12-13T07:23:10;-6.20;99.90
1468;DHT22;727;48.892;9.544;2022-12-13T07:25:36;-6.30;99.90
1468;DHT22;727;48.892;9.544;2022-12-13T07:28:05;-6.20;99.90
1468;DHT22;727;48.892;9.544;2022-12-13T07:30:34;-6.20;99.90
1468;DHT22;727;48.892;9.544;2022-12-13T07:33:02;-6.00;99.90
1468;DHT22;727;48.892;9.544;2022-12-13T07:35:29;-5.90;99.90
1468;DHT22;727;48.892;9.544;2022-12-13T07:37:58;-5.80;99.90
1468;DHT22;727;48.892;9.544;2022-12-13T07:40:24;-5.70;99.90
1468;DHT22;727;48.892;9.544;2022-12-13T07:42:52;-5.70;99.90
1468;DHT22;727;48.892;9.544;2022-12-13T07:45:19;-5.70;99.90
1468;DHT22;727;48.892;9.544;2022-12-13T07:47:46;-5.60;99.90
1468;DHT22;727;48.892;9.544;2022-12-13T07:50:14;-5.50;99.90
1468;DHT22;727;48.892;9.544;2022-12-13T07:52:40;-5.30;99.90
1468;DHT22;727;48.892;9.544;2022-12-13T07:55:09;-5.10;99.90
1468;DHT22;727;48.892;9.544;2022-12-13T07:57:35;-4.90;99.90
1468;DHT22;727;48.892;9.544;2022-12-13T08:00:03;-4.70;99.90
1468;DHT22;727;48.892;9.544;2022-12-13T08:02:30;-4.50;99.90
1468;DHT22;727;48.892;9.544;2022-12-13T08:04:56;-4.30;99.90
1468;DHT22;727;48.892;9.544;2022-12-13T08:07:23;-4.10;99.90
1468;DHT22;727;48.892;9.544;2022-12-13T08:09:50;-3.70;99.90
1468;DHT22;727;48.892;9.544;2022-12-13T08:12:18;-3.00;99.90
1468;DHT22;727;48.892;9.544;2022-12-13T08:14:47;-2.00;99.90
1468;DHT22;727;48.892;9.544;2022-12-13T08:17:13;-0.90;99.90
1468;DHT22;727;48.892;9.544;2022-12-13T08:19:40;-0.10;99.90
1468;DHT22;727;48.892;9.544;2022-12-13T08:22:11;0.80;99.90
1468;DHT22;727;48.892;9.544;2022-12-13T08:24:38;1.60;99.90
1468;DHT22;727;48.892;9.544;2022-12-13T08:27:04;2.40;97.80
1468;DHT22;727;48.892;9.544;2022-12-13T08:30:02;2.90;94.60
1468;DHT22;727;48.892;9.544;2022-12-13T08:32:29;3.20;92.50
1468;DHT22;727;48.892;9.544;2022-12-13T08:34:57;3.50;91.80
1468;DHT22;727;48.892;9.544;2022-12-13T08:37:24;3.70;88.90
1468;DHT22;727;48.892;9.544;2022-12-13T08:39:51;3.70;85.00
1468;DHT22;727;48.892;9.544;2022-12-13T08:42:18;3.60;82.80
1468;DHT22;727;48.892;9.544;2022-12-13T08:44:46;3.80;80.70
1468;DHT22;727;48.892;9.544;2022-12-13T08:47:14;3.70;78.90
1468;DHT22;727;48.892;9.544;2022-12-13T08:49:41;3.80;76.90
1468;DHT22;727;48.892;9.544;2022-12-13T08:52:08;3.80;77.70
1468;DHT22;727;48.892;9.544;2022-12-13T08:54:34;4.10;76.60
1468;DHT22;727;48.892;9.544;2022-12-13T08:57:01;4.30;73.70
1468;DHT22;727;48.892;9.544;2022-12-13T08:59:28;4.70;74.40
1468;DHT22;727;48.892;9.544;2022-12-13T09:01:55;5.30;70.90
1468;DHT22;727;48.892;9.544;2022-12-13T09:04:23;6.10;68.50
1468;DHT22;727;48.892;9.544;2022-12-13T09:06:49;6.20;67.70
1468;DHT22;727;48.892;9.544;2022-12-13T09:09:16;6.90;66.80
1468;DHT22;727;48.892;9.544;2022-12-13T09:11:42;7.60;62.40
1468;DHT22;727;48.892;9.544;2022-12-13T09:14:09;7.60;59.40
1468;DHT22;727;48.892;9.544;2022-12-13T09:16:37;7.70;59.20
1468;DHT22;727;48.892;9.544;2022-12-13T09:19:04;8.00;58.80
1468;DHT22;727;48.892;9.544;2022-12-13T09:21:32;8.70;56.60
1468;DHT22;727;48.892;9.544;2022-12-13T09:23:59;8.60;57.40
1468;DHT22;727;48.892;9.544;2022-12-13T09:26:26;9.10;56.60
1468;DHT22;727;48.892;9.544;2022-12-13T09:28:53;9.30;55.60
1468;DHT22;727;48.892;9.544;2022-12-13T09:31:21;9.00;54.90
1468;DHT22;727;48.892;9.544;2022-12-13T09:33:50;8.60;54.70
1468;DHT22;727;48.892;9.544;2022-12-13T09:36:18;8.70;55.50
1468;DHT22;727;48.892;9.544;2022-12-13T09:38:46;8.90;56.10
1468;DHT22;727;48.892;9.544;2022-12-13T09:41:18;9.40;55.50
1468;DHT22;727;48.892;9.544;2022-12-13T09:43:47;9.10;54.70
1468;DHT22;727;48.892;9.544;2022-12-13T09:46:22;8.80;54.40
1468;DHT22;727;48.892;9.544;2022-12-13T09:48:52;8.40;54.50
1468;DHT22;727;48.892;9.544;2022-12-13T09:51:20;8.20;55.60
1468;DHT22;727;48.892;9.544;2022-12-13T09:53:50;8.30;55.70
1468;DHT22;727;48.892;9.544;2022-12-13T09:56:18;7.80;55.20
1468;DHT22;727;48.892;9.544;2022-12-13T09:58:48;7.60;56.60
1468;DHT22;727;48.892;9.544;2022-12-13T10:01:15;7.70;56.50
1468;DHT22;727;48.892;9.544;2022-12-13T10:03:46;7.80;56.10
1468;DHT22;727;48.892;9.544;2022-12-13T10:06:15;7.90;56.10
1468;DHT22;727;48.892;9.544;2022-12-13T10:08:44;7.30;56.00
1468;DHT22;727;48.892;9.544;2022-12-13T10:11:13;7.20;57.10
1468;DHT22;727;48.892;9.544;2022-12-13T10:13:41;8.10;56.90
1468;DHT22;727;48.892;9.544;2022-12-13T10:16:26;8.30;55.60
1468;DHT22;727;48.892;9.544;2022-12-13T10:18:54;7.90;54.50
1468;DHT22;727;48.892;9.544;2022-12-13T10:21:24;7.50;55.80
1468;DHT22;727;48.892;9.544;2022-12-13T10:23:52;7.50;56.00
1468;DHT22;727;48.892;9.544;2022-12-13T10:26:20;7.50;56.10
1468;DHT22;727;48.892;9.544;2022-12-13T10:28:47;7.80;55.80
1468;DHT22;727;48.892;9.544;2022-12-13T10:31:16;7.50;55.70
1468;DHT22;727;48.892;9.544;2022-12-13T10:33:52;6.90;56.50
1468;DHT22;727;48.892;9.544;2022-12-13T10:36:31;6.40;57.40
1468;DHT22;727;48.892;9.544;2022-12-13T10:38:58;6.00;58.40
1468;DHT22;727;48.892;9.544;2022-12-13T10:41:33;5.80;58.90
1468;DHT22;727;48.892;9.544;2022-12-13T10:44:08;5.90;59.10
1468;DHT22;727;48.892;9.544;2022-12-13T10:46:35;6.00;58.80
1468;DHT22;727;48.892;9.544;2022-12-13T10:49:14;5.80;58.80
1468;DHT22;727;48.892;9.544;2022-12-13T10:51:42;6.00;59.50
1468;DHT22;727;48.892;9.544;2022-12-13T10:54:14;6.40;59.40
1468;DHT22;727;48.892;9.544;2022-12-13T10:56:45;6.80;58.00
1468;DHT22;727;48.892;9.544;2022-12-13T10:59:24;6.40;57.80
1468;DHT22;727;48.892;9.544;2022-12-13T11:01:51;6.20;58.30
1468;DHT22;727;48.892;9.544;2022-12-13T11:04:23;5.80;58.50
1468;DHT22;727;48.892;9.544;2022-12-13T11:06:52;5.40;59.60
1468;DHT22;727;48.892;9.544;2022-12-13T11:09:25;4.80;60.80
1468;DHT22;727;48.892;9.544;2022-12-13T11:11:56;4.90;61.40
1468;DHT22;727;48.892;9.544;2022-12-13T11:14:25;5.00;62.10
1468;DHT22;727;48.892;9.544;2022-12-13T11:16:55;4.90;61.60
1468;DHT22;727;48.892;9.544;2022-12-13T11:19:26;5.30;62.30
1468;DHT22;727;48.892;9.544;2022-12-13T11:21:56;5.60;61.80
1468;DHT22;727;48.892;9.544;2022-12-13T11:24:27;5.80;61.00
1468;DHT22;727;48.892;9.544;2022-12-13T11:27:01;5.80;60.10
1468;DHT22;727;48.892;9.544;2022-12-13T11:29:48;5.30;60.00
1468;DHT22;727;48.892;9.544;2022-12-13T11:32:22;5.00;60.20
1468;DHT22;727;48.892;9.544;2022-12-13T11:34:58;4.50;62.30
1468;DHT22;727;48.892;9.544;2022-12-13T11:37:34;4.90;62.60
1468;DHT22;727;48.892;9.544;2022-12-13T11:40:12;5.00;61.80
1468;DHT22;727;48.892;9.544;2022-12-13T11:42:45;5.10;61.80
1468;DHT22;727;48.892;9.544;2022-12-13T11:45:15;4.90;60.90
1468;DHT22;727;48.892;9.544;2022-12-13T11:47:47;4.70;60.80
1468;DHT22;727;48.892;9.544;2022-12-13T11:50:16;4.70;61.30
1468;DHT22;727;48.892;9.544;2022-12-13T11:52:46;4.60;61.60
1468;DHT22;727;48.892;9.544;2022-12-13T11:55:20;4.80;62.10
1468;DHT22;727;48.892;9.544;2022-12-13T11:57:55;4.80;61.40
1468;DHT22;727;48.892;9.544;2022-12-13T12:00:29;4.90;60.40
1468;DHT22;727;48.892;9.544;2022-12-13T12:03:04;4.90;59.90
1468;DHT22;727;48.892;9.544;2022-12-13T12:05:35;4.70;60.70
1468;DHT22;727;48.892;9.544;2022-12-13T12:08:08;4.60;61.20
1468;DHT22;727;48.892;9.544;2022-12-13T12:10:39;4.70;61.00
1468;DHT22;727;48.892;9.544;2022-12-13T12:13:14;4.30;60.90
1468;DHT22;727;48.892;9.544;2022-12-13T12:15:46;3.80;62.10
1468;DHT22;727;48.892;9.544;2022-12-13T12:18:15;3.50;63.30
1468;DHT22;727;48.892;9.544;2022-12-13T12:20:52;3.70;64.30
1468;DHT22;727;48.892;9.544;2022-12-13T12:23:28;3.80;64.50
1468;DHT22;727;48.892;9.544;2022-12-13T12:26:02;3.80;64.10
1468;DHT22;727;48.892;9.544;2022-12-13T12:28:44;3.80;64.90
1468;DHT22;727;48.892;9.544;2022-12-13T12:31:18;3.90;63.10
1468;DHT22;727;48.892;9.544;2022-12-13T12:33:53;4.30;62.60
1468;DHT22;727;48.892;9.544;2022-12-13T12:36:37;4.30;62.10
1468;DHT22;727;48.892;9.544;2022-12-13T12:39:41;4.60;61.40
1468;DHT22;727;48.892;9.544;2022-12-13T12:42:28;4.60;61.80
1468;DHT22;727;48.892;9.544;2022-12-13T12:45:14;4.50;60.20
1468;DHT22;727;48.892;9.544;2022-12-13T12:47:48;4.00;61.40
1468;DHT22;727;48.892;9.544;2022-12-13T12:50:38;4.00;62.70
1468;DHT22;727;48.892;9.544;2022-12-13T12:53:25;4.00;61.80
1468;DHT22;727;48.892;9.544;2022-12-13T12:56:01;3.80;61.40
1468;DHT22;727;48.892;9.544;2022-12-13T12:58:36;3.60;62.00
1468;DHT22;727;48.892;9.544;2022-12-13T13:01:16;3.50;62.70
1468;DHT22;727;48.892;9.544;2022-12-13T13:03:46;3.60;62.80
1468;DHT22;727;48.892;9.544;2022-12-13T13:06:17;3.60;63.20
1468;DHT22;727;48.892;9.544;2022-12-13T13:08:49;3.80;62.50
1468;DHT22;727;48.892;9.544;2022-12-13T13:11:19;4.10;62.00
1468;DHT22;727;48.892;9.544;2022-12-13T13:13:47;4.20;61.90
1468;DHT22;727;48.892;9.544;2022-12-13T13:16:34;4.40;62.40
1468;DHT22;727;48.892;9.544;2022-12-13T13:19:02;4.60;61.90
1468;DHT22;727;48.892;9.544;2022-12-13T13:21:46;4.40;62.10
1468;DHT22;727;48.892;9.544;2022-12-13T13:24:19;3.90;63.10
1468;DHT22;727;48.892;9.544;2022-12-13T13:26:48;3.50;64.30
1468;DHT22;727;48.892;9.544;2022-12-13T13:29:42;3.20;64.60
1468;DHT22;727;48.892;9.544;2022-12-13T13:32:35;2.90;66.10
1468;DHT22;727;48.892;9.544;2022-12-13T13:38:50;2.60;67.40
1468;DHT22;727;48.892;9.544;2022-12-13T13:41:37;2.20;69.20
1468;DHT22;727;48.892;9.544;2022-12-13T13:44:30;1.90;69.60
1468;DHT22;727;48.892;9.544;2022-12-13T13:47:13;1.60;70.40
1468;DHT22;727;48.892;9.544;2022-12-13T13:49:51;1.40;71.10
1468;DHT22;727;48.892;9.544;2022-12-13T13:52:24;1.30;71.90
1468;DHT22;727;48.892;9.544;2022-12-13T13:55:19;1.20;72.40
1468;DHT22;727;48.892;9.544;2022-12-13T14:01:19;1.10;74.00
1468;DHT22;727;48.892;9.544;2022-12-13T14:04:37;0.90;73.90
1468;DHT22;727;48.892;9.544;2022-12-13T14:07:49;0.70;76.30
1468;DHT22;727;48.892;9.544;2022-12-13T14:14:04;0.60;76.00
1468;DHT22;727;48.892;9.544;2022-12-13T14:20:23;0.50;76.50
1468;DHT22;727;48.892;9.544;2022-12-13T14:23:03;0.40;76.70
1468;DHT22;727;48.892;9.544;2022-12-13T14:25:53;0.30;77.30
1468;DHT22;727;48.892;9.544;2022-12-13T14:28:45;0.20;78.40
1468;DHT22;727;48.892;9.544;2022-12-13T14:31:15;0.20;78.50
1468;DHT22;727;48.892;9.544;2022-12-13T14:33:45;0.10;78.60
1468;DHT22;727;48.892;9.544;2022-12-13T14:36:15;0.00;78.90
1468;DHT22;727;48.892;9.544;2022-12-13T14:38:58;0.00;79.60
1468;DHT22;727;48.892;9.544;2022-12-13T14:41:25;0.00;80.30
1468;DHT22;727;48.892;9.544;2022-12-13T14:43:52;-0.10;80.20
1468;DHT22;727;48.892;9.544;2022-12-13T14:46:18;-0.20;80.80
1468;DHT22;727;48.892;9.544;2022-12-13T14:48:48;-0.20;81.50
1468;DHT22;727;48.892;9.544;2022-12-13T14:51:36;-0.20;81.60
1468;DHT22;727;48.892;9.544;2022-12-13T14:54:06;-0.30;82.00
1468;DHT22;727;48.892;9.544;2022-12-13T14:56:53;-0.40;82.20
1468;DHT22;727;48.892;9.544;2022-12-13T14:59:21;-0.50;82.50
1468;DHT22;727;48.892;9.544;2022-12-13T15:01:54;-0.60;84.00
1468;DHT22;727;48.892;9.544;2022-12-13T15:04:24;-0.70;83.80
1468;DHT22;727;48.892;9.544;2022-12-13T15:07:01;-0.70;84.70
1468;DHT22;727;48.892;9.544;2022-12-13T15:09:34;-0.70;85.10
1468;DHT22;727;48.892;9.544;2022-12-13T15:12:07;-0.70;85.50
1468;DHT22;727;48.892;9.544;2022-12-13T15:14:36;-0.70;85.40
1468;DHT22;727;48.892;9.544;2022-12-13T15:17:03;-0.80;85.70
1468;DHT22;727;48.892;9.544;2022-12-13T15:19:30;-0.90;86.00
1468;DHT22;727;48.892;9.544;2022-12-13T15:21:58;-1.00;86.40
1468;DHT22;727;48.892;9.544;2022-12-13T15:24:27;-1.00;87.30
1468;DHT22;727;48.892;9.544;2022-12-13T15:26:57;-1.00;87.90
1468;DHT22;727;48.892;9.544;2022-12-13T15:29:26;-1.10;88.50
1468;DHT22;727;48.892;9.544;2022-12-13T15:31:54;-1.20;89.10
1468;DHT22;727;48.892;9.544;2022-12-13T15:34:34;-1.20;89.60
1468;DHT22;727;48.892;9.544;2022-12-13T15:37:03;-1.20;90.00
1468;DHT22;727;48.892;9.544;2022-12-13T15:39:35;-1.20;90.40
1468;DHT22;727;48.892;9.544;2022-12-13T15:42:04;-1.20;90.60
1468;DHT22;727;48.892;9.544;2022-12-13T15:44:43;-1.30;90.90
1468;DHT22;727;48.892;9.544;2022-12-13T15:47:12;-1.30;91.10
1468;DHT22;727;48.892;9.544;2022-12-13T15:49:44;-1.40;91.30
1468;DHT22;727;48.892;9.544;2022-12-13T15:52:29;-1.30;91.70
1468;DHT22;727;48.892;9.544;2022-12-13T15:54:58;-1.40;91.70
1468;DHT22;727;48.892;9.544;2022-12-13T15:57:29;-1.40;91.90
1468;DHT22;727;48.892;9.544;2022-12-13T16:00:17;-1.30;92.20
1468;DHT22;727;48.892;9.544;2022-12-13T16:02:50;-1.40;92.20
1468;DHT22;727;48.892;9.544;2022-12-13T16:05:27;-1.50;92.50
1468;DHT22;727;48.892;9.544;2022-12-13T16:07:55;-1.50;92.80
1468;DHT22;727;48.892;9.544;2022-12-13T16:10:23;-1.60;93.00
1468;DHT22;727;48.892;9.544;2022-12-13T16:12:55;-1.50;93.40
1468;DHT22;727;48.892;9.544;2022-12-13T16:15:24;-1.50;93.50
1468;DHT22;727;48.892;9.544;2022-12-13T16:17:52;-1.60;93.70
1468;DHT22;727;48.892;9.544;2022-12-13T16:20:20;-1.60;93.70
1468;DHT22;727;48.892;9.544;2022-12-13T16:22:47;-1.60;93.90
1468;DHT22;727;48.892;9.544;2022-12-13T16:25:16;-1.50;94.20
1468;DHT22;727;48.892;9.544;2022-12-13T16:27:43;-1.50;94.10
1468;DHT22;727;48.892;9.544;2022-12-13T16:30:20;-1.60;94.30
1468;DHT22;727;48.892;9.544;2022-12-13T16:32:48;-1.60;94.30
1468;DHT22;727;48.892;9.544;2022-12-13T16:35:15;-1.60;94.40
1468;DHT22;727;48.892;9.544;2022-12-13T16:37:42;-1.60;94.50
1468;DHT22;727;48.892;9.544;2022-12-13T16:40:22;-1.60;94.50
1468;DHT22;727;48.892;9.544;2022-12-13T16:42:50;-1.60;94.60
1468;DHT22;727;48.892;9.544;2022-12-13T16:45:18;-1.70;94.70
1468;DHT22;727;48.892;9.544;2022-12-13T16:47:46;-1.70;94.90
1468;DHT22;727;48.892;9.544;2022-12-13T16:50:14;-1.60;94.80
1468;DHT22;727;48.892;9.544;2022-12-13T16:52:41;-1.60;94.80
1468;DHT22;727;48.892;9.544;2022-12-13T16:55:10;-1.60;94.60
1468;DHT22;727;48.892;9.544;2022-12-13T16:57:37;-1.50;94.60
1468;DHT22;727;48.892;9.544;2022-12-13T17:00:05;-1.60;94.60
1468;DHT22;727;48.892;9.544;2022-12-13T17:02:36;-1.60;94.80
1468;DHT22;727;48.892;9.544;2022-12-13T17:05:04;-1.60;94.80
1468;DHT22;727;48.892;9.544;2022-12-13T17:07:31;-1.70;94.70
1468;DHT22;727;48.892;9.544;2022-12-13T17:09:59;-1.70;94.90